Time;durP1;ratioP1;P1;durP2;ratioP2;P2;SDS_P1;SDS_P2;PMS_P1;PMS_P2;Temp;Humidity;BMP_temperature;BMP_pressure;BME280_temperature;BME280_humidity;BME280_pressure;Samples;Min_cycle;Max_cycle;Signal;HPM_P1;HPM_P2
2021/10/21 00:01:17;;;;;;;;;;;;;;;21.11;71.58;98851.16;7294259;19;153976;-54
2021/10/21 00:03:45;;;;;;;;;;;;;;;21.08;71.58;98855.50;7287219;19;152870;-54
2021/10/21 00:06:12;;;;;;;;;;;;;;;21.09;71.46;98881.59;7285874;19;154076;-54
2021/10/21 00:08:39;;;;;;;;;;;;;;;21.08;71.67;98888.38;7286322;19;151698;-54
2021/10/21 00:11:06;;;;;;;;;;;;;;;21.07;71.12;98909.25;7287237;19;153355;-55
2021/10/21 00:13:33;;;;;;;;;;;;;;;21.07;71.22;98920.47;7283825;19;153993;-54
2021/10/21 00:15:59;;;;;;;;;;;;;;;21.06;71.08;98938.50;7285955;19;152000;-54
2021/10/21 00:18:28;;;;;;;;;;;;;;;21.05;70.83;98946.09;7284930;19;153567;-54
2021/10/21 00:20:55;;;;;;;;;;;;;;;21.03;70.82;98956.84;7285192;19;154121;-54
2021/10/21 00:23:22;;;;;;;;;;;;;;;21.04;70.90;98971.72;7293317;19;151499;-54
2021/10/21 00:25:49;;;;;;;;;;;;;;;21.03;70.92;98986.94;7286506;19;154074;-54
2021/10/21 00:28:17;;;;;;;;;;;;;;;21.01;70.73;98984.50;7287242;19;151740;-53
2021/10/21 00:30:44;;;;;;;;;;;;;;;21.00;70.94;99001.69;7287341;19;152654;-54
2021/10/21 00:33:11;;;;;;;;;;;;;;;21.00;71.15;99016.53;7285932;19;153361;-54
2021/10/21 00:35:38;;;;;;;;;;;;;;;20.99;70.66;99028.94;7287076;19;151673;-54
2021/10/21 00:38:05;;;;;;;;;;;;;;;20.97;70.91;99034.13;7285087;19;152961;-54
2021/10/21 00:40:34;;;;;;;;;;;;;;;20.97;71.21;99048.16;7285291;19;154149;-54
2021/10/21 00:43:02;;;;;;;;;;;;;;;20.96;71.13;99056.94;7286958;19;152008;-54
2021/10/21 00:45:30;;;;;;;;;;;;;;;20.94;70.80;99054.47;7293141;19;153164;-54
2021/10/21 00:47:57;;;;;;;;;;;;;;;20.94;70.86;99062.88;7284415;19;151730;-54
2021/10/21 00:50:25;;;;;;;;;;;;;;;20.95;70.91;99074.94;7286059;19;151758;-54
2021/10/21 00:52:52;;;;;;;;;;;;;;;20.94;71.13;99081.75;7285092;19;154274;-55
2021/10/21 00:55:20;;;;;;;;;;;;;;;20.95;71.09;99083.34;7286690;19;152029;-54
2021/10/21 00:57:47;;;;;;;;;;;;;;;20.92;71.18;99095.31;7285287;19;152580;-54
2021/10/21 01:00:14;;;;;;;;;;;;;;;20.92;71.21;99103.72;7284727;19;153260;-54
2021/10/21 01:02:41;;;;;;;;;;;;;;;20.91;71.07;99110.50;7285259;19;151931;-55
2021/10/21 01:05:08;;;;;;;;;;;;;;;20.90;71.13;99134.97;7286030;19;153555;-55
2021/10/21 01:07:35;;;;;;;;;;;;;;;20.89;71.25;99138.97;7292479;19;154001;-55
2021/10/21 01:10:04;;;;;;;;;;;;;;;20.87;71.07;99146.91;7285703;19;153405;-55
2021/10/21 01:12:31;;;;;;;;;;;;;;;20.88;71.20;99158.97;7283336;19;154090;-55
2021/10/21 01:15:01;;;;;;;;;;;;;;;20.86;71.37;99164.91;7284498;19;151709;-55
2021/10/21 01:17:28;;;;;;;;;;;;;;;20.84;71.14;99165.28;7285731;19;153501;-54
2021/10/21 01:19:55;;;;;;;;;;;;;;;20.84;71.13;99187.75;7283938;19;153735;-55
2021/10/21 01:22:22;;;;;;;;;;;;;;;20.83;70.99;99188.91;7285964;19;151783;-54
2021/10/21 01:24:53;;;;;;;;;;;;;;;20.82;70.97;99197.69;7284597;19;154210;-54
2021/10/21 01:27:20;;;;;;;;;;;;;;;20.81;71.05;99196.84;7282969;19;152925;-55
2021/10/21 01:29:48;;;;;;;;;;;;;;;20.79;71.02;99207.63;7298197;19;151498;-54
2021/10/21 01:32:18;;;;;;;;;;;;;;;20.80;70.72;99222.50;7290636;19;153928;-54
2021/10/21 01:34:45;;;;;;;;;;;;;;;20.79;71.00;99221.66;7291647;19;151985;-54
2021/10/21 01:37:12;;;;;;;;;;;;;;;20.78;70.88;99234.06;7291730;19;153454;-54
2021/10/21 01:39:39;;;;;;;;;;;;;;;20.78;70.57;99241.66;7288759;19;153367;-54
2021/10/21 01:42:06;;;;;;;;;;;;;;;20.77;70.80;99252.06;7291411;19;151811;-54
2021/10/21 01:44:33;;;;;;;;;;;;;;;20.77;71.18;99265.28;7288664;19;154084;-54
2021/10/21 01:47:00;;;;;;;;;;;;;;;20.75;71.14;99271.25;7290746;19;153729;-54
2021/10/21 01:49:27;;;;;;;;;;;;;;;20.76;71.15;99280.47;7296099;19;151650;-54
2021/10/21 01:51:54;;;;;;;;;;;;;;;20.74;70.71;99292.06;7290402;19;153910;-54
2021/10/21 01:54:21;;;;;;;;;;;;;;;20.73;71.08;99301.66;7289512;19;151660;-54
2021/10/21 01:56:48;;;;;;;;;;;;;;;20.73;70.55;99298.84;7291130;19;153711;-54
2021/10/21 01:59:15;;;;;;;;;;;;;;;20.72;70.42;99311.22;7288534;19;153208;-54
2021/10/21 02:01:43;;;;;;;;;;;;;;;20.71;70.70;99317.22;7291367;19;151479;-54
2021/10/21 02:04:10;;;;;;;;;;;;;;;20.71;70.89;99340.50;7290288;19;153814;-54
2021/10/21 02:06:37;;;;;;;;;;;;;;;20.71;70.72;99351.72;7290166;19;153021;-54
2021/10/21 02:09:04;;;;;;;;;;;;;;;20.69;70.72;99356.03;7289914;19;152314;-54
2021/10/21 02:11:31;;;;;;;;;;;;;;;20.69;70.52;99370.88;7297647;19;152578;-54
2021/10/21 02:13:58;;;;;;;;;;;;;;;20.68;70.37;99380.47;7290224;19;151760;-54
2021/10/21 02:16:25;;;;;;;;;;;;;;;20.67;70.77;99381.63;7290611;19;152603;-54
2021/10/21 02:18:53;;;;;;;;;;;;;;;20.67;70.62;99389.25;7288415;19;153417;-54
2021/10/21 02:21:20;;;;;;;;;;;;;;;20.66;70.83;99402.47;7288649;19;151716;-54
2021/10/21 02:23:47;;;;;;;;;;;;;;;20.66;70.67;99404.44;7290791;19;153316;-55
2021/10/21 02:26:14;;;;;;;;;;;;;;;20.65;70.59;99403.63;7289212;19;153789;-54
2021/10/21 02:28:41;;;;;;;;;;;;;;;20.64;70.38;99417.97;7288697;19;151600;-54
2021/10/21 02:31:08;;;;;;;;;;;;;;;20.63;70.86;99417.16;7289329;19;153243;-54
2021/10/21 02:33:35;;;;;;;;;;;;;;;20.63;70.82;99425.56;7296652;19;154255;-55
2021/10/21 02:36:02;;;;;;;;;;;;;;;20.63;70.46;99441.59;7289056;19;152527;-55
2021/10/21 02:38:28;;;;;;;;;;;;;;;20.60;70.44;99437.50;7286860;19;153426;-54
2021/10/21 02:40:56;;;;;;;;;;;;;;;20.59;70.74;99441.47;7284518;19;152251;-55
2021/10/21 02:43:23;;;;;;;;;;;;;;;20.58;70.99;99448.25;7289556;19;152623;-54
2021/10/21 02:45:50;;;;;;;;;;;;;;;20.58;70.66;99453.06;7289225;19;153925;-54
2021/10/21 02:48:17;;;;;;;;;;;;;;;20.57;70.72;99452.25;7290230;19;151752;-54
2021/10/21 02:50:44;;;;;;;;;;;;;;;20.56;70.47;99461.00;7288316;19;153173;-54
2021/10/21 02:53:11;;;;;;;;;;;;;;;20.56;70.83;99473.03;7288623;19;154228;-54
2021/10/21 02:55:38;;;;;;;;;;;;;;;20.55;70.14;99476.19;7294873;19;151937;-54
2021/10/21 02:58:05;;;;;;;;;;;;;;;20.53;69.70;99479.34;7285220;19;152264;-55
2021/10/21 03:00:32;;;;;;;;;;;;;;;20.52;69.87;99486.13;7289713;19;152382;-55
2021/10/21 03:02:59;;;;;;;;;;;;;;;20.51;70.14;99495.69;7289137;19;153321;-54
2021/10/21 03:05:26;;;;;;;;;;;;;;;20.50;69.98;99499.66;7288295;19;153352;-54
2021/10/21 03:07:53;;;;;;;;;;;;;;;20.48;69.73;99507.63;7289918;19;151755;-55
2021/10/21 03:10:20;;;;;;;;;;;;;;;20.49;69.54;99517.66;7289163;19;153342;-54
2021/10/21 03:12:47;;;;;;;;;;;;;;;20.49;69.88;99517.66;7286456;19;153326;-54
2021/10/21 03:15:25;;;;;;;;;;;;;;;20.48;69.77;99523.63;7287778;19;151817;-54
2021/10/21 03:17:52;;;;;;;;;;;;;;;20.48;69.77;99530.06;7294975;19;152577;-54
2021/10/21 03:20:19;;;;;;;;;;;;;;;20.48;69.53;99544.09;7287053;19;151671;-54
2021/10/21 03:22:46;;;;;;;;;;;;;;;20.48;69.64;99549.69;7289025;19;153497;-55
2021/10/21 03:25:13;;;;;;;;;;;;;;;20.46;69.85;99557.63;7287870;19;153255;-54
2021/10/21 03:27:40;;;;;;;;;;;;;;;20.47;69.40;99559.28;7289161;19;152228;-54
2021/10/21 03:30:08;;;;;;;;;;;;;;;20.46;69.74;99576.44;7287120;19;152706;-55
2021/10/21 03:32:35;;;;;;;;;;;;;;;20.44;69.66;99561.94;7287312;19;153381;-54
2021/10/21 03:35:02;;;;;;;;;;;;;;;20.44;69.65;99579.59;7288574;19;151753;-54
2021/10/21 03:37:29;;;;;;;;;;;;;;;20.43;69.52;99575.16;7286564;19;153328;-54
2021/10/21 03:39:56;;;;;;;;;;;;;;;20.41;69.60;99574.66;7291161;19;151786;-54
2021/10/21 03:42:23;;;;;;;;;;;;;;;20.41;69.42;99580.25;7288006;19;153763;-54
2021/10/21 03:44:51;;;;;;;;;;;;;;;20.38;68.84;99581.78;7284754;19;153968;-54
2021/10/21 03:47:17;;;;;;;;;;;;;;;20.38;68.91;99587.41;7288625;19;152120;-54
2021/10/21 03:49:44;;;;;;;;;;;;;;;20.37;69.04;99605.38;7288201;19;153641;-54
2021/10/21 03:52:11;;;;;;;;;;;;;;;20.35;68.65;99599.28;7286335;19;153261;-54
2021/10/21 03:54:38;;;;;;;;;;;;;;;20.34;68.93;99608.06;7287872;19;152040;-54
2021/10/21 03:57:06;;;;;;;;;;;;;;;20.33;68.54;99614.81;7287924;19;152727;-54
2021/10/21 03:59:33;;;;;;;;;;;;;;;20.33;68.47;99626.03;7291761;19;153598;-54
2021/10/21 04:02:00;;;;;;;;;;;;;;;20.32;68.22;99630.00;7288433;19;152688;-54
2021/10/21 04:04:27;;;;;;;;;;;;;;;20.33;68.68;99626.88;7284948;19;153453;-54
2021/10/21 04:06:54;;;;;;;;;;;;;;;20.32;68.59;99638.41;7288392;19;151621;-55
2021/10/21 04:09:22;;;;;;;;;;;;;;;20.30;68.50;99633.16;7286888;19;152840;-54
2021/10/21 04:11:49;;;;;;;;;;;;;;;20.28;68.02;99638.25;7286564;19;153968;-54
2021/10/21 04:14:16;;;;;;;;;;;;;;;20.29;67.77;99639.06;7286486;19;152148;-54
2021/10/21 04:16:43;;;;;;;;;;;;;;;20.27;68.20;99649.78;7288315;19;152711;-54
2021/10/21 04:19:09;;;;;;;;;;;;;;;20.24;67.91;99651.31;7282404;19;153234;-54
2021/10/21 04:21:36;;;;;;;;;;;;;;;20.26;67.96;99659.38;7295209;19;151895;-54
2021/10/21 04:24:03;;;;;;;;;;;;;;;20.24;67.90;99664.50;7286294;19;153372;-54
2021/10/21 04:26:30;;;;;;;;;;;;;;;20.23;67.81;99677.69;7285965;19;151911;-54
2021/10/21 04:28:57;;;;;;;;;;;;;;;20.21;67.53;99673.59;7287670;19;152897;-54
2021/10/21 04:31:24;;;;;;;;;;;;;;;20.20;67.41;99669.97;7285539;19;153840;-54
2021/10/21 04:33:51;;;;;;;;;;;;;;;20.19;67.39;99682.34;7283641;19;152684;-54
2021/10/21 04:36:18;;;;;;;;;;;;;;;20.19;67.50;99678.72;7288345;19;152595;-54
2021/10/21 04:38:45;;;;;;;;;;;;;;;20.18;67.52;99699.50;7284840;19;153601;-54
2021/10/21 04:41:12;;;;;;;;;;;;;;;20.17;67.17;99701.47;7286733;19;152253;-54
2021/10/21 04:43:39;;;;;;;;;;;;;;;20.16;67.21;99707.44;7292923;19;152700;-54
2021/10/21 04:46:06;;;;;;;;;;;;;;;20.15;66.91;99705.78;7285329;19;151968;-54
2021/10/21 04:48:33;;;;;;;;;;;;;;;20.14;67.07;99720.97;7283953;19;153175;-54
2021/10/21 04:51:00;;;;;;;;;;;;;;;20.12;66.60;99724.13;7285650;19;153435;-54
2021/10/21 04:53:27;;;;;;;;;;;;;;;20.10;66.39;99725.59;7285729;19;152251;-54
2021/10/21 04:55:54;;;;;;;;;;;;;;;20.12;67.04;99737.31;7285226;19;152347;-55
2021/10/21 04:58:21;;;;;;;;;;;;;;;20.08;66.36;99733.53;7284570;19;153283;-54
2021/10/21 05:00:48;;;;;;;;;;;;;;;20.06;66.37;99731.06;7282696;19;152575;-54
2021/10/21 05:03:15;;;;;;;;;;;;;;;20.07;66.54;99745.91;7282474;19;153436;-55
2021/10/21 05:05:43;;;;;;;;;;;;;;;20.05;66.43;99751.84;7289952;19;153328;-54
2021/10/21 05:08:10;;;;;;;;;;;;;;;20.03;66.67;99750.53;7285217;19;152879;-54
2021/10/21 05:10:37;;;;;;;;;;;;;;;20.04;66.51;99754.97;7282489;19;154359;-54
2021/10/21 05:13:04;;;;;;;;;;;;;;;20.03;66.86;99761.75;7285947;19;151509;-54
2021/10/21 05:15:31;;;;;;;;;;;;;;;20.02;66.34;99776.91;7285313;19;152683;-54
2021/10/21 05:17:58;;;;;;;;;;;;;;;20.01;66.51;99766.84;7284131;19;154087;-54
2021/10/21 05:20:25;;;;;;;;;;;;;;;19.99;66.29;99782.03;7283116;19;151756;-55
2021/10/21 05:22:52;;;;;;;;;;;;;;;19.99;66.17;99782.03;7285554;19;152582;-54
2021/10/21 05:25:19;;;;;;;;;;;;;;;20.01;66.27;99780.88;7284381;19;153950;-54
2021/10/21 05:27:46;;;;;;;;;;;;;;;20.03;66.78;99793.41;7294134;19;151698;-54
2021/10/21 05:30:13;;;;;;;;;;;;;;;20.05;67.29;99796.69;7284228;19;153292;-54
2021/10/21 05:32:40;;;;;;;;;;;;;;;20.09;67.48;99792.06;7285474;19;151799;-54
2021/10/21 05:35:07;;;;;;;;;;;;;;;20.14;67.79;99805.09;7283442;19;153164;-54
2021/10/21 05:37:34;;;;;;;;;;;;;;;20.16;67.46;99811.19;7283562;19;153669;-54
2021/10/21 05:40:01;;;;;;;;;;;;;;;20.20;67.61;99810.19;7283179;19;151548;-54
2021/10/21 05:42:28;;;;;;;;;;;;;;;20.24;67.98;99811.16;7285534;19;152571;-56
2021/10/21 05:44:55;;;;;;;;;;;;;;;20.29;68.18;99824.19;7282934;19;154586;-54
2021/10/21 05:47:22;;;;;;;;;;;;;;;20.32;69.37;99832.78;7293387;19;151851;-55
2021/10/21 05:49:50;;;;;;;;;;;;;;;20.37;69.62;99840.19;7282802;19;152139;-54
2021/10/21 05:52:19;;;;;;;;;;;;;;;20.41;69.97;99838.38;7284504;19;152958;-54
2021/10/21 05:54:46;;;;;;;;;;;;;;;20.48;70.46;99852.72;7282366;19;153458;-55
2021/10/21 05:57:13;;;;;;;;;;;;;;;20.54;70.12;99859.78;7280963;19;153518;-54
2021/10/21 05:59:40;;;;;;;;;;;;;;;20.60;70.99;99866.03;7279416;19;151548;-55
2021/10/21 06:02:07;;;;;;;;;;;;;;;20.67;71.27;99872.78;7284977;19;152888;-54
2021/10/21 06:04:35;;;;;;;;;;;;;;;20.73;71.28;99884.66;7283475;19;153743;-54
2021/10/21 06:07:02;;;;;;;;;;;;;;;20.78;70.58;99888.13;7283623;19;152225;-54
2021/10/21 06:09:29;;;;;;;;;;;;;;;20.84;69.85;99900.00;7290895;19;152685;-54
2021/10/21 06:11:56;;;;;;;;;;;;;;;20.91;69.10;99910.69;7283333;19;152049;-55
2021/10/21 06:14:23;;;;;;;;;;;;;;;20.96;68.88;99907.69;7286807;19;153107;-54
2021/10/21 06:16:50;;;;;;;;;;;;;;;21.03;68.33;99911.63;7290206;19;153494;-54
2021/10/21 06:19:17;;;;;;;;;;;;;;;21.09;68.73;99909.44;7289744;19;151950;-54
2021/10/21 06:21:47;;;;;;;;;;;;;;;21.16;69.22;99919.03;7288788;19;153358;-54
2021/10/21 06:24:14;;;;;;;;;;;;;;;21.25;69.30;99930.25;7289586;19;153215;-57
2021/10/21 06:26:41;;;;;;;;;;;;;;;21.25;63.71;99944.28;7288182;19;152208;-53
2021/10/21 06:29:08;;;;;;;;;;;;;;;21.27;62.24;99931.53;7288126;19;152579;-53
2021/10/21 06:31:35;;;;;;;;;;;;;;;21.33;61.72;99949.03;7281742;19;153934;-53
2021/10/21 06:34:02;;;;;;;;;;;;;;;21.37;61.68;99951.97;7281739;19;153719;-53
2021/10/21 06:36:29;;;;;;;;;;;;;;;21.42;61.03;99957.41;7287276;19;153226;-53
2021/10/21 06:38:56;;;;;;;;;;;;;;;21.45;60.77;99963.19;7290241;19;151652;-53
2021/10/21 06:41:24;;;;;;;;;;;;;;;21.47;60.65;99972.09;7287981;19;153286;-53
2021/10/21 06:43:51;;;;;;;;;;;;;;;21.51;60.29;99977.88;7288714;19;154201;-53
2021/10/21 06:46:18;;;;;;;;;;;;;;;21.54;60.03;99986.44;7290450;19;152033;-53
2021/10/21 06:48:47;;;;;;;;;;;;;;;21.56;59.69;99974.88;7287189;19;152762;-53
2021/10/21 06:51:14;;;;;;;;;;;;;;;21.57;59.34;99984.94;7288224;19;152733;-53
2021/10/21 06:53:41;;;;;;;;;;;;;;;21.61;58.95;99988.72;7297237;19;151740;-53
2021/10/21 06:56:08;;;;;;;;;;;;;;;21.61;58.79;99989.56;7287603;19;153111;-54
2021/10/21 06:58:35;;;;;;;;;;;;;;;21.65;58.67;100017.81;7287951;19;151903;-53
2021/10/21 07:01:02;;;;;;;;;;;;;;;21.52;51.12;100025.31;7286604;19;153337;-53
2021/10/21 07:03:29;;;;;;;;;;;;;;;21.55;55.18;100026.63;7288545;19;153942;-53
2021/10/21 07:05:57;;;;;;;;;;;;;;;21.56;55.38;100037.53;7289972;19;151750;-54
2021/10/21 07:08:26;;;;;;;;;;;;;;;21.58;56.21;100054.88;7288860;19;152260;-53
2021/10/21 07:10:53;;;;;;;;;;;;;;;21.60;55.93;100066.63;7286356;19;154089;-54
2021/10/21 07:13:20;;;;;;;;;;;;;;;21.61;55.63;100073.91;7287121;19;151729;-54
2021/10/21 07:16:04;;;;;;;;;;;;;;;21.62;56.38;100086.75;7294038;19;152871;-53
2021/10/21 07:18:32;;;;;;;;;;;;;;;21.62;56.24;100103.63;7286003;19;152762;-54
2021/10/21 07:20:59;;;;;;;;;;;;;;;21.62;56.63;100109.25;7284982;19;154289;-53
2021/10/21 07:23:26;;;;;;;;;;;;;;;21.62;55.73;100106.44;7286210;19;152469;-53
2021/10/21 07:25:54;;;;;;;;;;;;;;;21.61;55.47;100118.88;7283913;19;151820;-53
2021/10/21 07:28:22;;;;;;;;;;;;;;;21.63;56.19;100130.59;7286843;19;152631;-52
2021/10/21 07:30:53;;;;;;;;;;;;;;;21.66;56.71;100149.63;7286093;19;155528;-53
2021/10/21 07:33:20;;;;;;;;;;;;;;;21.66;56.00;100162.84;7286661;19;152166;-52
2021/10/21 07:35:47;;;;;;;;;;;;;;;21.65;56.46;100167.66;7283157;19;152355;-53
2021/10/21 07:38:15;;;;;;;;;;;;;;;21.64;55.91;100179.22;7294778;19;154350;-53
2021/10/21 07:40:42;;;;;;;;;;;;;;;21.64;56.14;100198.88;7287353;19;153395;-53
2021/10/21 07:43:11;;;;;;;;;;;;;;;21.62;55.80;100216.09;7285199;19;153919;-53
2021/10/21 07:45:38;;;;;;;;;;;;;;;21.62;55.35;100226.53;7286688;19;151693;-53
2021/10/21 07:48:06;;;;;;;;;;;;;;;21.59;55.84;100236.44;7287570;19;152423;-54
2021/10/21 07:50:34;;;;;;;;;;;;;;;21.59;55.71;100253.31;7284081;19;154155;-53
2021/10/21 07:53:05;;;;;;;;;;;;;;;21.59;55.58;100250.50;7285358;19;151648;-53
2021/10/21 07:55:34;;;;;;;;;;;;;;;21.56;55.45;100278.44;7287944;19;153719;-55
2021/10/21 07:58:01;;;;;;;;;;;;;;;21.53;54.61;100282.72;7291244;19;154002;-54
2021/10/21 08:00:28;;;;;;;;;;;;;;;21.53;55.07;100287.56;7287298;19;153081;-53
2021/10/21 08:02:56;;;;;;;;;;;;;;;21.51;54.88;100293.50;7286893;19;153325;-53
2021/10/21 08:05:23;;;;;;;;;;;;;;;21.50;54.79;100310.69;7286435;19;151969;-53
2021/10/21 08:07:50;;;;;;;;;;;;;;;21.48;54.52;100329.88;7287252;19;153432;-53
2021/10/21 08:10:21;;;;;;;;;;;;;;;21.45;54.15;100336.97;7285069;19;154527;-53
2021/10/21 08:12:49;;;;;;;;;;;;;;;21.44;54.42;100354.19;7285685;19;153014;-54
2021/10/21 08:15:17;;;;;;;;;;;;;;;21.43;53.97;100356.16;7285597;19;153822;-53
2021/10/21 08:17:44;;;;;;;;;;;;;;;21.41;53.90;100354.81;7287350;19;153454;-53
2021/10/21 08:20:12;;;;;;;;;;;;;;;21.39;54.30;100362.78;7291228;19;151473;-53
2021/10/21 08:22:40;;;;;;;;;;;;;;;21.38;53.91;100377.97;7281345;19;154183;-53
2021/10/21 08:25:07;;;;;;;;;;;;;;;21.36;54.17;100397.13;7283010;19;152227;-53
2021/10/21 08:27:34;;;;;;;;;;;;;;;21.36;54.27;100402.75;7286494;19;152820;-53
2021/10/21 08:30:01;;;;;;;;;;;;;;;21.33;53.95;100415.50;7286388;19;153359;-53
2021/10/21 08:32:30;;;;;;;;;;;;;;;21.32;53.62;100419.44;7282898;19;151843;-53
2021/10/21 08:34:57;;;;;;;;;;;;;;;21.32;54.07;100418.63;7278575;19;153537;-53
2021/10/21 08:37:25;;;;;;;;;;;;;;;21.31;54.11;100443.06;7279682;19;152426;-54
2021/10/21 08:39:52;;;;;;;;;;;;;;;21.29;54.18;100445.41;7286450;19;152302;-55
2021/10/21 08:42:19;;;;;;;;;;;;;;;21.28;53.84;100458.63;7289872;19;152924;-54
2021/10/21 08:44:51;;;;;;;;;;;;;;;21.26;53.94;100474.97;7285854;19;151983;-53
2021/10/21 08:47:19;;;;;;;;;;;;;;;21.23;54.11;100472.81;7286342;19;152699;-53
2021/10/21 08:49:47;;;;;;;;;;;;;;;21.21;54.34;100472.28;7284452;19;154107;-53
2021/10/21 08:52:14;;;;;;;;;;;;;;;21.21;54.72;100488.34;7285753;19;151707;-53
2021/10/21 08:54:42;;;;;;;;;;;;;;;21.20;54.21;100500.72;7285815;19;152598;-53
2021/10/21 08:57:12;;;;;;;;;;;;;;;21.19;54.60;100504.69;7282933;19;154191;-53
2021/10/21 08:59:40;;;;;;;;;;;;;;;21.16;54.43;100511.81;7282510;19;151993;-52
2021/10/21 09:02:14;;;;;;;;;;;;;;;21.14;54.65;100522.50;7281995;19;153383;-53
2021/10/21 09:09:43;;;;;;;;;;;;;;;21.09;54.24;100550.72;7282032;19;154501;-53
2021/10/21 09:12:12;;;;;;;;;;;;;;;21.07;54.62;100552.19;7283871;19;151825;-53
2021/10/21 09:14:41;;;;;;;;;;;;;;;21.04;54.44;100564.06;7282971;19;153542;-54
2021/10/21 09:17:09;;;;;;;;;;;;;;;21.04;54.66;100573.31;7284123;19;154137;-53
2021/10/21 09:19:37;;;;;;;;;;;;;;;21.04;54.78;100586.53;7284971;19;151996;-53
2021/10/21 09:22:05;;;;;;;;;;;;;;;21.01;55.46;100587.19;7283239;19;153489;-53
2021/10/21 09:24:39;;;;;;;;;;;;;;;20.98;55.08;100597.09;7282941;19;153660;-54
2021/10/21 09:27:09;;;;;;;;;;;;;;;20.96;55.52;100609.78;7291086;19;151780;-53
2021/10/21 09:29:38;;;;;;;;;;;;;;;20.95;55.37;100608.09;7283028;19;153344;-54
2021/10/21 09:32:08;;;;;;;;;;;;;;;20.94;55.44;100620.53;7283855;19;151608;-56
2021/10/21 09:34:41;;;;;;;;;;;;;;;20.92;55.51;100628.41;7284494;19;152721;-53
2021/10/21 09:37:10;;;;;;;;;;;;;;;20.90;55.40;100628.72;7282046;19;156011;-55
2021/10/21 09:39:40;;;;;;;;;;;;;;;20.90;55.33;100642.78;7282763;19;152067;-53
2021/10/21 09:42:09;;;;;;;;;;;;;;;20.89;55.22;100640.28;7281612;19;151868;-53
2021/10/21 09:44:36;;;;;;;;;;;;;;;20.86;55.26;100639.78;7283135;19;153020;-53
2021/10/21 09:47:06;;;;;;;;;;;;;;;20.83;55.13;100640.41;7281817;19;152109;-54
2021/10/21 09:49:37;;;;;;;;;;;;;;;20.85;54.98;100654.13;7294049;19;153843;-53
2021/10/21 09:52:13;;;;;;;;;;;;;;;20.83;55.12;100653.63;7290064;19;151741;-53
2021/10/21 09:54:40;;;;;;;;;;;;;;;20.80;55.24;100671.91;7290321;19;152598;-53
2021/10/21 09:57:31;;;;;;;;;;;;;;;20.81;55.00;100676.41;7289781;19;153371;-53
2021/10/21 10:00:01;;;;;;;;;;;;;;;20.79;55.25;100680.69;7287668;19;152876;-53
2021/10/21 10:02:29;;;;;;;;;;;;;;;20.79;55.07;100684.31;7289181;19;152714;-53
2021/10/21 10:04:57;;;;;;;;;;;;;;;20.80;55.29;100700.00;7286726;19;153379;-53
2021/10/21 10:07:25;;;;;;;;;;;;;;;20.78;54.91;100702.31;7290881;19;151868;-53
2021/10/21 10:09:58;;;;;;;;;;;;;;;20.79;54.77;100703.97;7296620;19;153358;-54
2021/10/21 10:12:28;;;;;;;;;;;;;;;20.78;54.77;100701.47;7290762;19;151980;-54
2021/10/21 10:14:56;;;;;;;;;;;;;;;20.77;55.04;100702.63;7289229;19;153862;-53
2021/10/21 10:17:23;;;;;;;;;;;;;;;20.77;55.00;100703.44;7289616;19;153470;-53
2021/10/21 10:19:51;;;;;;;;;;;;;;;20.78;55.04;100719.16;7286935;19;152067;-53
2021/10/21 10:22:21;;;;;;;;;;;;;;;20.76;54.95;100724.25;7287966;19;153005;-53
2021/10/21 10:24:48;;;;;;;;;;;;;;;20.75;54.70;100731.03;7288210;19;153938;-54
2021/10/21 10:27:19;;;;;;;;;;;;;;;20.74;55.22;100734.97;7289120;19;152129;-54
2021/10/21 10:29:47;;;;;;;;;;;;;;;20.74;54.73;100746.22;7289992;19;152796;-53
2021/10/21 10:32:22;;;;;;;;;;;;;;;20.73;55.03;100747.34;7296336;19;153710;-54
2021/10/21 10:34:50;;;;;;;;;;;;;;;20.73;54.83;100764.19;7288787;19;153354;-53
2021/10/21 10:37:17;;;;;;;;;;;;;;;20.73;54.81;100768.97;7285603;19;152608;-54
2021/10/21 10:39:45;;;;;;;;;;;;;;;20.73;54.52;100774.59;7284583;19;151833;-53
2021/10/21 10:42:13;;;;;;;;;;;;;;;20.72;54.70;100789.75;7288350;19;152964;-53
2021/10/21 10:44:40;;;;;;;;;;;;;;;20.71;54.48;100788.13;7286150;19;153493;-53
2021/10/21 10:47:08;;;;;;;;;;;;;;;20.69;54.76;100791.25;7289513;19;151761;-54
2021/10/21 10:49:39;;;;;;;;;;;;;;;20.69;54.30;100793.22;7287801;19;152892;-53
2021/10/21 10:52:06;;;;;;;;;;;;;;;20.69;54.91;100799.66;7287893;19;154123;-53
2021/10/21 10:54:36;;;;;;;;;;;;;;;20.69;54.49;100807.25;7296733;19;151995;-54
2021/10/21 10:57:03;;;;;;;;;;;;;;;20.68;54.43;100809.22;7289055;19;153489;-53
2021/10/21 10:59:31;;;;;;;;;;;;;;;20.67;54.73;100806.75;7286751;19;151754;-53
2021/10/21 11:01:58;;;;;;;;;;;;;;;20.67;54.97;100818.78;7283411;19;152924;-53
2021/10/21 11:04:28;;;;;;;;;;;;;;;20.67;54.77;100818.78;7287442;19;153517;-53
2021/10/21 11:06:58;;;;;;;;;;;;;;;20.67;54.73;100826.41;7288991;19;152466;-53
2021/10/21 11:09:25;;;;;;;;;;;;;;;20.65;54.39;100840.75;7287275;19;152742;-53
2021/10/21 11:11:55;;;;;;;;;;;;;;;20.66;54.42;100844.38;7285262;19;153486;-53
2021/10/21 11:14:25;;;;;;;;;;;;;;;20.65;54.50;100845.53;7288294;19;151715;-54
2021/10/21 11:16:54;;;;;;;;;;;;;;;20.65;55.14;100851.97;7295762;19;153732;-53
2021/10/21 11:19:24;;;;;;;;;;;;;;;20.65;54.82;100859.56;7286738;19;151661;-54
2021/10/21 11:21:54;;;;;;;;;;;;;;;20.64;54.95;100869.13;7287392;19;152192;-54
2021/10/21 11:24:24;;;;;;;;;;;;;;;20.64;54.93;100864.34;7287111;19;154236;-54
2021/10/21 11:26:51;;;;;;;;;;;;;;;20.65;54.58;100880.03;7289131;19;151809;-53
2021/10/21 11:29:18;;;;;;;;;;;;;;;20.64;54.76;100872.75;7288301;19;153553;-53
2021/10/21 11:31:47;;;;;;;;;;;;;;;20.65;54.45;100882.00;7286214;19;154390;-53
2021/10/21 11:34:15;;;;;;;;;;;;;;;20.65;55.01;100887.63;7286943;19;151756;-54
2021/10/21 11:36:45;;;;;;;;;;;;;;;20.63;54.67;100876.69;7287819;19;153278;-53
2021/10/21 11:39:13;;;;;;;;;;;;;;;20.63;54.32;100878.66;7287826;19;152485;-53
2021/10/21 11:41:40;;;;;;;;;;;;;;;20.62;54.60;100900.31;7287494;19;153091;-53
2021/10/21 11:44:07;;;;;;;;;;;;;;;20.60;54.38;100896.16;7284025;19;153317;-54
2021/10/21 11:46:34;;;;;;;;;;;;;;;20.60;54.80;100896.97;7287812;19;151772;-53
2021/10/21 11:49:03;;;;;;;;;;;;;;;20.60;54.75;100894.19;7286710;19;152572;-53
2021/10/21 11:51:30;;;;;;;;;;;;;;;20.61;55.04;100895.84;7283642;19;153896;-53
2021/10/21 11:54:06;;;;;;;;;;;;;;;20.61;54.87;100898.66;7287151;19;151507;-54
2021/10/21 11:56:33;;;;;;;;;;;;;;;20.62;54.87;100902.28;7287624;19;153040;-53
2021/10/21 11:59:00;;;;;;;;;;;;;;;20.59;54.54;100906.53;7284352;19;154058;-53
2021/10/21 12:01:28;;;;;;;;;;;;;;;20.60;54.95;100913.81;7293903;19;151781;-53
2021/10/21 12:03:55;;;;;;;;;;;;;;;20.61;54.91;100918.31;7286621;19;154045;-54
2021/10/21 12:06:42;;;;;;;;;;;;;;;20.59;54.72;100917.75;7285122;19;152065;-53
2021/10/21 12:09:10;;;;;;;;;;;;;;;20.59;54.86;100919.75;7287565;19;153021;-53
2021/10/21 12:11:41;;;;;;;;;;;;;;;20.60;54.34;100921.41;7284806;19;154441;-53
2021/10/21 12:14:08;;;;;;;;;;;;;;;20.60;54.53;100927.88;7287039;19;151778;-53
2021/10/21 12:16:35;;;;;;;;;;;;;;;20.58;54.59;100927.31;7286135;19;153620;-53
2021/10/21 12:19:09;;;;;;;;;;;;;;;20.60;54.37;100936.28;7285346;19;154293;-54
2021/10/21 12:21:39;;;;;;;;;;;;;;;20.59;54.58;100929.00;7292667;19;152578;-54
2021/10/21 12:24:15;;;;;;;;;;;;;;;20.61;54.71;100937.94;7286070;19;153114;-53
2021/10/21 12:26:42;;;;;;;;;;;;;;;20.59;54.58;100934.59;7287209;19;152096;-53
2021/10/21 12:29:11;;;;;;;;;;;;;;;20.58;54.93;100927.31;7286458;19;152890;-54
2021/10/21 12:31:40;;;;;;;;;;;;;;;20.60;54.72;100930.66;7286271;19;153658;-53
2021/10/21 12:34:11;;;;;;;;;;;;;;;20.60;55.08;100939.09;7284589;19;151854;-53
2021/10/21 12:36:41;;;;;;;;;;;;;;;20.61;55.31;100943.56;7285367;19;153453;-53
2021/10/21 12:39:09;;;;;;;;;;;;;;;20.62;55.23;100959.28;7281775;19;153988;-53
2021/10/21 12:41:39;;;;;;;;;;;;;;;20.63;55.06;100958.09;7280426;19;151904;-53